createdAt,value
2023-02-13T00:01:30.165Z,103371.06
2023-02-13T00:03:58.721Z,103351.56
2023-02-13T00:06:27.615Z,103364.91
2023-02-13T00:08:56.069Z,103363.16
2023-02-13T00:11:24.475Z,103363.31
2023-02-13T00:13:52.928Z,103363.41
2023-02-13T00:16:21.251Z,103362.69
2023-02-13T00:18:51.022Z,103365.53
2023-02-13T00:21:19.636Z,103375.34
2023-02-13T00:23:48.487Z,103367.47
2023-02-13T00:26:18.542Z,103364.84
2023-02-13T00:28:47.887Z,103365.69
2023-02-13T00:31:19.814Z,103352.56
2023-02-13T00:33:50.141Z,103356.19
2023-02-13T00:36:21.451Z,103368.69
2023-02-13T00:38:50.691Z,103362.44
2023-02-13T00:41:19.328Z,103366.03
2023-02-13T00:43:49.216Z,103356.22
2023-02-13T00:46:18.836Z,103351.75
2023-02-13T00:48:47.734Z,103358.00
2023-02-13T00:51:17.543Z,103354.44
2023-02-13T00:53:45.939Z,103359.84
2023-02-13T00:56:14.357Z,103362.44
2023-02-13T00:58:42.703Z,103361.63
2023-02-13T01:01:11.177Z,103365.16
2023-02-13T01:03:39.774Z,103364.25
2023-02-13T01:06:09.367Z,103367.81
2023-02-13T01:08:41.670Z,103354.47
2023-02-13T01:11:10.853Z,103358.94
2023-02-13T01:13:39.319Z,103356.13
2023-02-13T01:16:08.543Z,103357.91
2023-02-13T01:18:37.001Z,103355.13
2023-02-13T01:21:08.943Z,103352.41
2023-02-13T01:23:40.422Z,103354.88
2023-02-13T01:26:12.363Z,103350.44
2023-02-13T01:28:40.867Z,103353.19
2023-02-13T01:31:09.351Z,103344.19
2023-02-13T01:33:37.744Z,103345.09
2023-02-13T01:36:12.074Z,103347.91
2023-02-13T01:38:42.923Z,103343.50
2023-02-13T01:41:12.126Z,103341.59
2023-02-13T01:43:51.488Z,103333.53
2023-02-13T01:46:28.851Z,103341.50
2023-02-13T01:49:04.702Z,103345.94
2023-02-13T01:51:37.248Z,103341.50
2023-02-13T01:54:13.914Z,103330.72
2023-02-13T01:56:48.656Z,103325.22
2023-02-13T01:59:25.781Z,103325.06
2023-02-13T02:01:55.451Z,103319.72
2023-02-13T02:04:30.193Z,103323.25
2023-02-13T02:07:06.048Z,103323.25
2023-02-13T02:09:42.236Z,103313.72
2023-02-13T02:12:19.378Z,103316.44
2023-02-13T02:14:48.587Z,103304.13
2023-02-13T02:17:18.058Z,103311.25
2023-02-13T02:19:58.369Z,103319.22
2023-02-13T02:23:16.081Z,103312.16
2023-02-13T02:26:36.519Z,103304.00
2023-02-13T02:29:39.252Z,103318.34
2023-02-13T02:32:29.895Z,103309.34
2023-02-13T02:35:22.888Z,103301.25
2023-02-13T02:38:11.842Z,103295.94
2023-02-13T02:40:55.521Z,103291.53
2023-02-13T02:43:43.111Z,103290.59
2023-02-13T02:46:24.514Z,103288.75
2023-02-13T02:49:21.144Z,103291.53
2023-02-13T02:51:56.713Z,103289.06
2023-02-13T02:54:54.020Z,103300.97
2023-02-13T02:57:48.918Z,103293.78
2023-02-13T03:00:39.136Z,103284.72
2023-02-13T03:03:34.034Z,103283.63
2023-02-13T03:06:14.386Z,103284.50
2023-02-13T03:09:04.855Z,103280.13
2023-02-13T03:11:50.825Z,103276.81
2023-02-13T03:14:22.522Z,103293.88
2023-02-13T03:17:09.678Z,103293.91
2023-02-13T03:20:26.976Z,103292.22
2023-02-13T03:23:15.018Z,103296.63
2023-02-13T03:26:15.825Z,103294.94
2023-02-13T03:29:15.361Z,103308.22
2023-02-13T03:32:01.684Z,103310.13
2023-02-13T03:34:51.017Z,103313.75
2023-02-13T03:37:47.083Z,103320.06
2023-02-13T03:40:27.760Z,103314.84
2023-02-13T03:43:06.169Z,103323.78
2023-02-13T03:45:57.493Z,103323.78
2023-02-13T03:48:49.203Z,103332.69
2023-02-13T03:51:25.970Z,103330.09
2023-02-13T03:54:02.180Z,103333.59
2023-02-13T03:56:53.612Z,103336.19
2023-02-13T03:59:31.020Z,103332.72
2023-02-13T04:02:09.622Z,103330.00
2023-02-13T04:04:44.897Z,103330.97
2023-02-13T04:07:29.668Z,103329.19
2023-02-13T04:10:03.782Z,103324.72
2023-02-13T04:12:42.905Z,103318.53
2023-02-13T04:15:19.829Z,103326.44
2023-02-13T04:17:54.356Z,103324.69
2023-02-13T04:20:22.984Z,103322.88
2023-02-13T04:22:55.674Z,103320.22
2023-02-13T04:25:24.393Z,103322.91
2023-02-13T04:27:54.298Z,103325.50
2023-02-13T04:30:22.851Z,103330.84
2023-02-13T04:32:51.920Z,103323.78
2023-02-13T04:35:20.284Z,103308.63
2023-02-13T04:37:48.860Z,103317.41
2023-02-13T04:40:17.225Z,103312.06
2023-02-13T04:42:45.487Z,103317.44
2023-02-13T04:45:15.114Z,103319.22
2023-02-13T04:47:44.461Z,103312.16
2023-02-13T04:50:12.867Z,103312.19
2023-02-13T04:52:41.183Z,103326.53
2023-02-13T04:55:11.570Z,103315.84
2023-02-13T04:57:39.942Z,103322.91
2023-02-13T05:00:10.505Z,103316.72
2023-02-13T05:02:40.313Z,103322.09
2023-02-13T05:05:08.880Z,103330.00
2023-02-13T05:07:37.553Z,103324.75
2023-02-13T05:10:07.330Z,103320.22
2023-02-13T05:12:35.705Z,103326.38
2023-02-13T05:15:04.249Z,103325.38
2023-02-13T05:17:32.736Z,103321.97
2023-02-13T05:20:02.712Z,103321.19
2023-02-13T05:22:48.508Z,103327.47
2023-02-13T05:25:17.115Z,103331.97
2023-02-13T05:27:45.403Z,103323.13
2023-02-13T05:30:15.671Z,103317.84
2023-02-13T05:32:44.095Z,103321.50
2023-02-13T05:35:15.981Z,103322.38
2023-02-13T05:37:44.854Z,103325.00
2023-02-13T05:40:15.477Z,103327.72
2023-02-13T05:42:44.566Z,103323.44
2023-02-13T05:45:13.056Z,103334.03
2023-02-13T05:47:41.362Z,103335.94
2023-02-13T05:50:10.753Z,103343.03
2023-02-13T05:52:46.378Z,103337.63
2023-02-13T05:55:14.714Z,103340.38
2023-02-13T05:57:43.198Z,103335.06
2023-02-13T06:00:13.084Z,103341.19
2023-02-13T06:02:41.586Z,103342.94
2023-02-13T06:05:10.034Z,103343.94
2023-02-13T06:07:38.333Z,103348.25
2023-02-13T06:10:09.417Z,103345.50
2023-02-13T06:12:39.317Z,103353.44
2023-02-13T06:15:09.193Z,103350.81
2023-02-13T06:17:37.481Z,103347.16
2023-02-13T06:20:07.959Z,103352.47
2023-02-13T06:22:36.216Z,103351.69
2023-02-13T06:25:04.961Z,103348.13
2023-02-13T06:27:35.833Z,103355.25
2023-02-13T06:30:04.582Z,103351.81
2023-02-13T06:32:32.837Z,103360.84
2023-02-13T06:35:01.162Z,103355.41
2023-02-13T06:37:29.425Z,103358.06
2023-02-13T06:39:57.748Z,103356.34
2023-02-13T06:42:26.331Z,103356.28
2023-02-13T06:44:56.034Z,103357.19
2023-02-13T06:47:24.427Z,103353.63
2023-02-13T06:49:53.891Z,103358.06
2023-02-13T06:52:24.499Z,103360.59
2023-02-13T06:54:55.720Z,103358.91
2023-02-13T06:57:24.057Z,103352.59
2023-02-13T06:59:52.771Z,103364.03
2023-02-13T07:02:22.788Z,103365.69
2023-02-13T07:04:51.710Z,103376.38
2023-02-13T07:07:20.022Z,103367.56
2023-02-13T07:09:48.400Z,103371.00
2023-02-13T07:12:16.732Z,103376.22
2023-02-13T07:14:46.027Z,103367.34
2023-02-13T07:17:14.321Z,103363.66
2023-02-13T07:19:44.052Z,103366.41
2023-02-13T07:22:12.519Z,103367.22
2023-02-13T07:24:40.904Z,103364.41
2023-02-13T07:27:09.558Z,103364.41
2023-02-13T07:29:38.255Z,103354.59
2023-02-13T07:32:07.204Z,103363.47
2023-02-13T07:34:35.656Z,103358.94
2023-02-13T07:37:06.342Z,103355.38
2023-02-13T07:39:34.786Z,103362.44
2023-02-13T07:42:03.207Z,103365.94
2023-02-13T07:44:32.198Z,103367.75
2023-02-13T07:47:01.229Z,103362.34
2023-02-13T07:49:29.686Z,103361.38
2023-02-13T07:51:59.248Z,103364.06
2023-02-13T07:54:29.084Z,103368.44
2023-02-13T07:56:57.661Z,103356.91
2023-02-13T07:59:26.340Z,103356.03
2023-02-13T08:01:54.691Z,103357.69
2023-02-13T08:04:25.405Z,103367.53
2023-02-13T08:06:54.689Z,103364.78
2023-02-13T08:09:41.542Z,103366.59
2023-02-13T08:12:11.951Z,103371.03
2023-02-13T08:14:40.339Z,103366.53
2023-02-13T08:17:10.401Z,103368.28
2023-02-13T08:19:39.023Z,103368.34
2023-02-13T08:22:07.480Z,103372.81
2023-02-13T08:24:35.882Z,103364.66
2023-02-13T08:27:04.529Z,103358.38
2023-02-13T08:29:34.659Z,103369.78
2023-02-13T08:32:03.140Z,103371.63
2023-02-13T08:34:31.537Z,103377.69
2023-02-13T08:37:00.022Z,103382.00
2023-02-13T08:39:28.329Z,103381.25
2023-02-13T08:41:56.892Z,103378.69
2023-02-13T08:44:25.349Z,103376.97
2023-02-13T08:46:55.162Z,103384.06
2023-02-13T08:49:23.748Z,103381.25
2023-02-13T08:51:52.526Z,103383.94
2023-02-13T08:54:21.074Z,103376.78
2023-02-13T08:56:49.521Z,103382.13
2023-02-13T08:59:17.924Z,103372.34
2023-02-13T09:01:46.305Z,103363.47
2023-02-13T09:04:18.395Z,103365.97
2023-02-13T09:06:46.765Z,103373.88
2023-02-13T09:09:16.164Z,103378.31
2023-02-13T09:11:44.574Z,103364.06
2023-02-13T09:14:12.924Z,103362.44
2023-02-13T09:16:41.392Z,103365.88
2023-02-13T09:19:10.124Z,103370.25
2023-02-13T09:21:39.836Z,103373.81
2023-02-13T09:24:09.581Z,103371.19
2023-02-13T09:26:38.077Z,103373.75
2023-02-13T09:29:06.534Z,103371.94
2023-02-13T09:31:34.949Z,103373.69
2023-02-13T09:34:03.481Z,103375.50
2023-02-13T09:36:33.175Z,103376.41
2023-02-13T09:39:05.100Z,103378.25
2023-02-13T09:41:38.123Z,103378.19
2023-02-13T09:44:33.849Z,103379.94
2023-02-13T09:47:07.123Z,103380.81
2023-02-13T09:49:41.387Z,103384.41
2023-02-13T09:52:11.525Z,103388.94
2023-02-13T09:54:41.424Z,103383.75
2023-02-13T09:57:18.846Z,103380.16
2023-02-13T10:00:00.804Z,103382.03
2023-02-13T10:02:52.194Z,103385.66
2023-02-13T10:05:43.737Z,103389.28
2023-02-13T10:08:31.195Z,103386.69
2023-02-13T10:11:14.358Z,103388.38
2023-02-13T10:14:06.511Z,103386.69
2023-02-13T10:16:42.997Z,103386.47
2023-02-13T10:19:30.111Z,103390.00
2023-02-13T10:22:05.952Z,103390.66
2023-02-13T10:24:42.352Z,103394.19
2023-02-13T10:27:23.917Z,103390.47
2023-02-13T10:30:12.707Z,103388.66
2023-02-13T10:33:11.262Z,103392.19
2023-02-13T10:35:40.533Z,103381.38
2023-02-13T10:38:18.142Z,103386.63
2023-02-13T10:41:07.167Z,103382.00
2023-02-13T10:43:52.578Z,103374.81
2023-02-13T10:46:30.873Z,103378.44
2023-02-13T10:49:28.586Z,103388.94
2023-02-13T10:52:11.187Z,103381.03
2023-02-13T10:55:03.528Z,103381.19
2023-02-13T10:57:55.205Z,103369.34
2023-02-13T11:00:35.926Z,103380.75
2023-02-13T11:03:04.911Z,103372.03
2023-02-13T11:05:38.417Z,103374.75
2023-02-13T11:08:21.944Z,103361.47
2023-02-13T11:10:50.759Z,103361.25
2023-02-13T11:13:22.807Z,103369.03
2023-02-13T11:16:05.466Z,103369.75
2023-02-13T11:18:37.588Z,103360.78
2023-02-13T11:21:15.505Z,103367.00
2023-02-13T11:23:47.726Z,103368.03
2023-02-13T11:26:25.102Z,103369.78
2023-02-13T11:28:57.924Z,103375.31
2023-02-13T11:31:31.574Z,103375.22
2023-02-13T11:34:19.697Z,103371.78
2023-02-13T11:37:08.413Z,103367.75
2023-02-13T11:39:36.874Z,103376.53
2023-02-13T11:42:14.942Z,103371.28
2023-02-13T11:44:49.812Z,103373.19
2023-02-13T11:47:35.213Z,103378.44
2023-02-13T11:50:05.903Z,103376.53
2023-02-13T11:52:37.251Z,103377.59
2023-02-13T11:55:26.685Z,103382.88
2023-02-13T11:58:00.283Z,103376.00
2023-02-13T12:00:37.767Z,103366.22
2023-02-13T12:03:30.186Z,103382.34
2023-02-13T12:06:05.446Z,103381.50
2023-02-13T12:08:38.277Z,103374.44
2023-02-13T12:11:25.183Z,103375.22
2023-02-13T12:13:57.451Z,103383.97
2023-02-13T12:16:35.871Z,103383.78
2023-02-13T12:19:12.823Z,103383.88
2023-02-13T12:22:02.580Z,103377.66
2023-02-13T12:25:01.600Z,103373.22
2023-02-13T12:27:45.900Z,103362.25
2023-02-13T12:30:47.521Z,103368.28
2023-02-13T12:33:41.757Z,103368.19
2023-02-13T12:36:20.510Z,103376.34
2023-02-13T12:39:12.937Z,103373.66
2023-02-13T12:41:59.189Z,103359.88
2023-02-13T12:44:56.982Z,103353.84
2023-02-13T12:47:31.704Z,103364.34
2023-02-13T12:50:37.150Z,103381.13
2023-02-13T12:53:53.116Z,103383.78
2023-02-13T12:56:47.477Z,103383.97
2023-02-13T12:59:28.760Z,103388.28
2023-02-13T13:02:41.946Z,103386.47
2023-02-13T13:05:27.466Z,103376.16
2023-02-13T13:08:28.845Z,103387.78
2023-02-13T13:11:25.778Z,103382.50
2023-02-13T13:14:10.614Z,103381.69
2023-02-13T13:16:54.951Z,103381.69
2023-02-13T13:19:42.158Z,103381.75
2023-02-13T13:22:16.808Z,103385.44
2023-02-13T13:25:05.793Z,103384.78
2023-02-13T13:27:44.322Z,103381.97
2023-02-13T13:30:19.959Z,103389.09
2023-02-13T13:32:53.619Z,103378.56
2023-02-13T13:35:24.127Z,103378.47
2023-02-13T13:38:03.899Z,103376.50
2023-02-13T13:40:45.517Z,103379.88
2023-02-13T13:43:26.066Z,103376.28
2023-02-13T13:46:09.847Z,103361.22
2023-02-13T13:49:10.752Z,103370.22
2023-02-13T13:51:39.884Z,103354.16
2023-02-13T13:54:36.783Z,103357.78
2023-02-13T13:57:13.765Z,103351.47
2023-02-13T14:00:27.870Z,103346.00
2023-02-13T14:03:34.702Z,103344.09
2023-02-13T14:06:09.952Z,103330.81
2023-02-13T14:09:24.734Z,103330.88
2023-02-13T14:11:58.559Z,103316.59
2023-02-13T14:14:57.903Z,103319.34
2023-02-13T14:17:55.273Z,103313.00
2023-02-13T14:20:41.479Z,103310.19
2023-02-13T14:23:53.629Z,103310.31
2023-02-13T14:26:34.642Z,103311.09
2023-02-13T14:29:34.925Z,103307.56
2023-02-13T14:32:23.507Z,103307.53
2023-02-13T14:34:59.019Z,103305.03
2023-02-13T14:37:40.137Z,103301.28
2023-02-13T14:40:47.178Z,103311.91
2023-02-13T14:43:30.778Z,103315.53
2023-02-13T14:46:09.912Z,103309.16
2023-02-13T14:48:49.908Z,103306.78
2023-02-13T14:51:34.866Z,103303.34
2023-02-13T14:54:14.610Z,103306.03
2023-02-13T14:56:47.524Z,103293.56
2023-02-13T14:59:20.431Z,103284.94
2023-02-13T15:01:54.795Z,103289.47
2023-02-13T15:04:32.979Z,103295.78
2023-02-13T15:07:08.426Z,103299.94
2023-02-13T15:09:41.032Z,103294.44
2023-02-13T15:12:29.925Z,103283.06
2023-02-13T15:14:58.689Z,103290.19
2023-02-13T15:17:30.792Z,103286.78
2023-02-13T15:20:09.929Z,103295.66
2023-02-13T15:22:42.971Z,103285.88
2023-02-13T15:25:26.696Z,103299.19
2023-02-13T15:27:58.745Z,103295.78
2023-02-13T15:30:29.780Z,103289.63
2023-02-13T15:33:01.595Z,103290.63
2023-02-13T15:35:34.760Z,103285.56
2023-02-13T15:38:21.415Z,103291.81
2023-02-13T15:40:59.775Z,103292.88
2023-02-13T15:43:36.583Z,103290.28
2023-02-13T15:46:09.832Z,103293.91
2023-02-13T15:48:38.430Z,103299.31
2023-02-13T15:51:09.268Z,103293.91
2023-02-13T15:53:37.689Z,103302.03
2023-02-13T15:56:07.502Z,103309.16
2023-02-13T15:58:36.471Z,103303.03
2023-02-13T16:01:09.204Z,103304.91
2023-02-13T16:03:41.167Z,103289.03
2023-02-13T16:06:17.650Z,103292.66
2023-02-13T16:08:54.811Z,103303.47
2023-02-13T16:11:33.463Z,103300.81
2023-02-13T16:14:14.140Z,103297.25
2023-02-13T16:17:03.349Z,103301.78
2023-02-13T16:19:38.128Z,103301.72
2023-02-13T16:22:29.570Z,103304.47
2023-02-13T16:25:16.981Z,103305.44
2023-02-13T16:27:48.061Z,103296.63
2023-02-13T16:30:37.136Z,103302.06
2023-02-13T16:33:30.527Z,103312.75
2023-02-13T16:36:01.453Z,103301.09
2023-02-13T16:38:35.686Z,103288.75
2023-02-13T16:41:08.003Z,103299.53
2023-02-13T16:43:43.200Z,103304.06
2023-02-13T16:46:35.255Z,103304.09
2023-02-13T16:49:21.206Z,103293.31
2023-02-13T16:52:15.634Z,103291.78
2023-02-13T16:54:56.653Z,103303.22
2023-02-13T16:57:31.373Z,103309.56
2023-02-13T17:00:09.781Z,103311.34
2023-02-13T17:02:39.982Z,103305.13
2023-02-13T17:05:23.304Z,103306.13
2023-02-13T17:07:57.025Z,103320.34
2023-02-13T17:10:31.195Z,103318.34
2023-02-13T17:13:02.844Z,103309.66
2023-02-13T17:15:33.389Z,103315.81
2023-02-13T17:18:02.165Z,103315.75
2023-02-13T17:20:34.789Z,103313.00
2023-02-13T17:23:06.942Z,103320.19
2023-02-13T17:25:39.402Z,103323.75
2023-02-13T17:28:14.791Z,103326.53
2023-02-13T17:30:44.818Z,103330.84
2023-02-13T17:33:22.074Z,103320.06
2023-02-13T17:35:51.323Z,103318.44
2023-02-13T17:38:21.210Z,103328.19
2023-02-13T17:40:54.072Z,103328.09
2023-02-13T17:43:22.991Z,103328.13
2023-02-13T17:45:52.006Z,103319.97
2023-02-13T17:48:24.049Z,103336.00
2023-02-13T17:50:53.293Z,103324.41
2023-02-13T17:53:25.632Z,103322.66
2023-02-13T17:55:57.824Z,103325.41
2023-02-13T17:58:26.527Z,103336.06
2023-02-13T18:00:56.081Z,103336.94
2023-02-13T18:03:25.521Z,103337.81
2023-02-13T18:05:57.066Z,103332.44
2023-02-13T18:08:27.577Z,103341.44
2023-02-13T18:10:57.683Z,103343.28
2023-02-13T18:13:26.093Z,103345.75
2023-02-13T18:15:54.521Z,103334.28
2023-02-13T18:18:23.328Z,103346.72
2023-02-13T18:20:57.622Z,103341.31
2023-02-13T18:23:26.295Z,103344.94
2023-02-13T18:26:03.964Z,103343.19
2023-02-13T18:28:33.375Z,103336.84
2023-02-13T18:31:02.173Z,103336.97
2023-02-13T18:33:30.894Z,103342.28
2023-02-13T18:36:04.134Z,103346.72
2023-02-13T18:38:32.484Z,103350.31
2023-02-13T18:41:03.315Z,103351.31
2023-02-13T18:43:31.647Z,103353.00
2023-02-13T18:46:01.390Z,103340.56
2023-02-13T18:48:31.296Z,103349.50
2023-02-13T18:51:01.110Z,103345.97
2023-02-13T18:53:31.032Z,103352.06
2023-02-13T18:56:06.038Z,103346.72
2023-02-13T18:58:35.459Z,103343.09
2023-02-13T19:01:09.770Z,103344.94
2023-02-13T19:03:39.544Z,103346.84
2023-02-13T19:06:10.755Z,103355.66
2023-02-13T19:08:39.161Z,103352.06
2023-02-13T19:11:11.633Z,103351.16
2023-02-13T19:13:39.891Z,103349.31
2023-02-13T19:16:11.242Z,103348.41
2023-02-13T19:18:40.968Z,103351.16
2023-02-13T19:21:12.870Z,103349.44
2023-02-13T19:23:42.873Z,103359.31
2023-02-13T19:26:16.236Z,103354.00
2023-02-13T19:28:46.204Z,103355.75
2023-02-13T19:31:18.541Z,103364.72
2023-02-13T19:33:48.070Z,103360.06
2023-02-13T19:36:19.881Z,103365.31
2023-02-13T19:38:48.873Z,103359.16
2023-02-13T19:41:19.459Z,103351.22
2023-02-13T19:43:51.086Z,103355.66
2023-02-13T19:46:26.508Z,103366.41
2023-02-13T19:48:55.712Z,103357.50
2023-02-13T19:51:27.843Z,103348.72
2023-02-13T19:54:00.847Z,103361.19
2023-02-13T19:56:32.014Z,103367.25
2023-02-13T19:59:00.455Z,103353.00
2023-02-13T20:01:30.974Z,103361.19
2023-02-13T20:03:59.751Z,103368.28
2023-02-13T20:06:32.203Z,103369.97
2023-02-13T20:09:02.746Z,103362.19
2023-02-13T20:11:32.560Z,103365.63
2023-02-13T20:14:01.889Z,103382.72
2023-02-13T20:16:33.242Z,103370.97
2023-02-13T20:19:03.693Z,103368.09
2023-02-13T20:21:34.195Z,103363.72
2023-02-13T20:24:03.985Z,103370.13
2023-02-13T20:26:34.481Z,103375.53
2023-02-13T20:29:03.980Z,103372.75
2023-02-13T20:31:34.748Z,103375.44
2023-02-13T20:34:07.277Z,103380.97
2023-02-13T20:36:35.944Z,103389.88
2023-02-13T20:39:08.034Z,103386.28
2023-02-13T20:41:39.080Z,103393.44
2023-02-13T20:44:11.956Z,103402.59
2023-02-13T20:46:41.460Z,103397.22
2023-02-13T20:49:11.690Z,103398.94
2023-02-13T20:51:41.307Z,103400.91
2023-02-13T20:54:11.111Z,103412.50
2023-02-13T20:56:40.876Z,103408.06
2023-02-13T20:59:09.305Z,103418.69
2023-02-13T21:01:41.537Z,103408.13
2023-02-13T21:04:13.705Z,103417.84
2023-02-13T21:06:43.034Z,103406.38
2023-02-13T21:09:12.327Z,103420.66
2023-02-13T21:11:45.058Z,103419.78
2023-02-13T21:14:15.160Z,103418.81
2023-02-13T21:16:44.421Z,103424.00
2023-02-13T21:19:17.157Z,103423.03
2023-02-13T21:21:46.423Z,103423.22
2023-02-13T21:24:18.067Z,103424.94
2023-02-13T21:26:49.268Z,103425.63
2023-02-13T21:29:17.677Z,103424.88
2023-02-13T21:31:48.736Z,103425.00
2023-02-13T21:34:19.321Z,103422.34
2023-02-13T21:36:48.320Z,103419.84
2023-02-13T21:39:17.072Z,103422.53
2023-02-13T21:41:48.840Z,103427.00
2023-02-13T21:44:18.244Z,103419.00
2023-02-13T21:46:47.816Z,103418.03
2023-02-13T21:49:19.911Z,103425.22
2023-02-13T21:51:49.092Z,103426.97
2023-02-13T21:54:17.430Z,103416.34
2023-02-13T21:56:47.262Z,103418.22
2023-02-13T21:59:18.729Z,103426.34
2023-02-13T22:01:51.265Z,103423.63
2023-02-13T22:04:19.739Z,103423.56
2023-02-13T22:06:52.192Z,103428.00
2023-02-13T22:09:23.209Z,103425.41
2023-02-13T22:11:55.411Z,103432.56
2023-02-13T22:14:23.979Z,103429.72
2023-02-13T22:16:54.089Z,103431.44
2023-02-13T22:19:22.839Z,103426.88
2023-02-13T22:21:51.344Z,103422.44
2023-02-13T22:24:19.788Z,103419.94
2023-02-13T22:26:48.119Z,103428.94
2023-02-13T22:29:21.682Z,103428.97
2023-02-13T22:31:50.027Z,103428.94
2023-02-13T22:34:18.424Z,103431.63
2023-02-13T22:36:46.804Z,103428.06
2023-02-13T22:39:15.081Z,103431.53
2023-02-13T22:41:45.636Z,103428.88
2023-02-13T22:44:15.072Z,103436.06
2023-02-13T22:46:45.723Z,103444.13
2023-02-13T22:49:14.045Z,103442.97
2023-02-13T22:51:42.324Z,103445.66
2023-02-13T22:54:12.246Z,103447.41
2023-02-13T22:56:40.591Z,103444.81
2023-02-13T22:59:08.851Z,103434.97
2023-02-13T23:01:37.801Z,103442.16
2023-02-13T23:04:07.519Z,103437.81
2023-02-13T23:06:36.931Z,103431.63
2023-02-13T23:09:05.398Z,103437.00
2023-02-13T23:11:51.587Z,103444.16
2023-02-13T23:14:23.868Z,103438.06
2023-02-13T23:17:09.824Z,103436.34
2023-02-13T23:19:39.514Z,103432.78
2023-02-13T23:22:08.936Z,103438.09
2023-02-13T23:24:37.259Z,103436.25
2023-02-13T23:27:05.702Z,103440.66
2023-02-13T23:29:34.139Z,103435.41
2023-02-13T23:32:02.541Z,103442.53
2023-02-13T23:34:31.098Z,103435.44
2023-02-13T23:37:00.775Z,103445.25
2023-02-13T23:39:29.115Z,103430.91
2023-02-13T23:41:57.396Z,103422.84
2023-02-13T23:44:25.813Z,103420.16
2023-02-13T23:46:54.089Z,103417.41
2023-02-13T23:49:22.517Z,103413.88
2023-02-13T23:51:51.152Z,103420.09
2023-02-13T23:54:25.022Z,103424.63
2023-02-13T23:56:55.962Z,103419.44
2023-02-13T23:59:25.474Z,103421.31
